Time;durP1;ratioP1;P1;durP2;ratioP2;P2;SDS_P1;SDS_P2;PMS_P1;PMS_P2;Temp;Humidity;BMP_temperature;BMP_pressure;BME280_temperature;BME280_humidity;BME280_pressure;Samples;Min_cycle;Max_cycle;Signal;HPM_P1;HPM_P2
2022/03/31 00:00:58;;;;;;;16.83;11.90;;;;;;;6.99;100.00;97439.31;4987286;28;20685;-78
2022/03/31 00:03:27;;;;;;;18.07;11.73;;;;;;;6.91;100.00;97439.06;4994771;28;20195;-78
2022/03/31 00:05:55;;;;;;;17.23;11.90;;;;;;;6.82;100.00;97441.44;4992265;28;20199;-79
2022/03/31 00:08:23;;;;;;;16.67;11.67;;;;;;;6.93;100.00;97442.41;4997528;28;20233;-78
2022/03/31 00:10:56;;;;;;;18.73;11.90;;;;;;;6.87;100.00;97438.47;4994810;28;20198;-78
2022/03/31 00:13:26;;;;;;;16.00;11.13;;;;;;;6.93;100.00;97439.78;4993065;28;20230;-78
2022/03/31 00:15:57;;;;;;;16.97;11.73;;;;;;;6.71;100.00;97441.41;4992948;28;20665;-78
2022/03/31 00:18:31;;;;;;;17.37;11.00;;;;;;;6.64;100.00;97434.09;4990164;28;20347;-78
2022/03/31 00:20:59;;;;;;;17.90;12.03;;;;;;;6.52;100.00;97441.13;4991635;28;20254;-78
2022/03/31 00:23:28;;;;;;;18.30;12.83;;;;;;;6.29;100.00;97435.81;4994166;28;20238;-78
2022/03/31 00:26:01;;;;;;;15.87;11.43;;;;;;;6.42;100.00;97438.34;4988054;28;20258;-78
2022/03/31 00:28:29;;;;;;;17.83;12.10;;;;;;;6.43;100.00;97447.91;4991890;28;20199;-78
2022/03/31 00:30:59;;;;;;;18.70;11.73;;;;;;;6.20;100.00;97444.38;4993917;28;20198;-78
2022/03/31 00:33:27;;;;;;;20.23;13.00;;;;;;;6.21;100.00;97442.59;4967683;28;20199;-78
2022/03/31 00:35:56;;;;;;;18.60;12.63;;;;;;;6.05;100.00;97447.28;4966792;28;20203;-78
2022/03/31 00:38:25;;;;;;;17.77;12.83;;;;;;;5.90;100.00;97450.09;4972605;28;20262;-78
2022/03/31 00:40:53;;;;;;;16.20;11.83;;;;;;;5.92;100.00;97444.72;4968564;28;20203;-78
2022/03/31 00:43:26;;;;;;;18.50;12.60;;;;;;;5.94;100.00;97441.03;4968482;28;20195;-78
2022/03/31 00:45:56;;;;;;;18.73;12.57;;;;;;;5.92;100.00;97439.47;4967888;28;20283;-78
2022/03/31 00:48:25;;;;;;;19.17;13.40;;;;;;;5.84;100.00;97447.88;4969362;28;20375;-78
2022/03/31 00:50:56;;;;;;;20.77;12.87;;;;;;;5.93;100.00;97449.03;4970875;28;20202;-78
2022/03/31 00:53:24;;;;;;;19.53;12.37;;;;;;;5.91;100.00;97441.25;4990060;28;20257;-78
2022/03/31 00:56:00;;;;;;;21.83;12.43;;;;;;;5.94;100.00;97448.91;4991490;28;20379;-78
2022/03/31 00:58:32;;;;;;;18.90;12.40;;;;;;;6.06;100.00;97434.03;4993167;28;20222;-77
2022/03/31 01:01:02;;;;;;;19.20;13.30;;;;;;;6.03;100.00;97429.00;4993948;28;20191;-78
2022/03/31 01:03:34;;;;;;;17.63;12.40;;;;;;;5.87;100.00;97431.03;4994014;28;20267;-78
2022/03/31 01:06:03;;;;;;;19.93;13.20;;;;;;;5.80;100.00;97428.03;4994078;28;20210;-78
2022/03/31 01:08:31;;;;;;;18.07;13.50;;;;;;;5.85;100.00;97420.66;4991767;28;20222;-78
2022/03/31 01:11:04;;;;;;;16.57;12.07;;;;;;;5.88;100.00;97420.41;4991888;28;20207;-78
2022/03/31 01:13:35;;;;;;;16.70;12.43;;;;;;;5.92;100.00;97416.66;4949591;28;20193;-78
2022/03/31 01:16:08;;;;;;;22.60;13.00;;;;;;;5.79;100.00;97417.63;4949497;29;20272;-78
2022/03/31 01:18:37;;;;;;;19.10;12.80;;;;;;;5.78;100.00;97410.69;4936515;29;20216;-78
2022/03/31 01:21:05;;;;;;;18.87;12.70;;;;;;;5.76;100.00;97421.31;4921509;28;20319;-77
2022/03/31 01:23:36;;;;;;;17.43;12.10;;;;;;;5.60;100.00;97418.13;4942933;28;20224;-78
2022/03/31 01:26:08;;;;;;;20.27;12.53;;;;;;;5.64;100.00;97404.66;4950428;28;20207;-78
2022/03/31 01:28:40;;;;;;;19.23;12.40;;;;;;;5.70;100.00;97404.22;4947685;28;20228;-77
2022/03/31 01:31:08;;;;;;;16.30;12.27;;;;;;;5.63;100.00;97399.53;4952972;28;20226;-77
2022/03/31 01:33:40;;;;;;;17.90;11.97;;;;;;;5.63;100.00;97395.09;4953068;28;20256;-77
2022/03/31 01:36:09;;;;;;;17.53;11.70;;;;;;;5.61;100.00;97404.06;4953021;28;20222;-78
2022/03/31 01:38:39;;;;;;;19.33;11.93;;;;;;;5.32;100.00;97399.09;4979041;28;20226;-77
2022/03/31 01:41:07;;;;;;;18.33;12.03;;;;;;;5.27;100.00;97401.19;4995697;28;20209;-77
2022/03/31 01:43:36;;;;;;;15.40;11.10;;;;;;;5.11;100.00;97404.06;4991919;28;20277;-77
2022/03/31 01:46:05;;;;;;;17.73;11.27;;;;;;;5.13;100.00;97394.31;4995410;28;20210;-77
2022/03/31 01:48:34;;;;;;;17.87;11.23;;;;;;;5.23;100.00;97397.13;4986976;28;20218;-77
2022/03/31 01:51:04;;;;;;;17.47;11.90;;;;;;;5.40;100.00;97394.16;4989128;28;20282;-77
2022/03/31 01:53:34;;;;;;;16.83;11.90;;;;;;;5.42;100.00;97389.63;4990619;28;20299;-77
2022/03/31 01:56:06;;;;;;;18.57;11.50;;;;;;;5.39;100.00;97387.19;4970116;28;20602;-77
2022/03/31 01:58:35;;;;;;;17.40;12.27;;;;;;;5.24;100.00;97379.59;4989502;28;20219;-77
2022/03/31 02:01:06;;;;;;;18.77;12.53;;;;;;;5.16;100.00;97374.88;4988130;28;20199;-77
2022/03/31 02:03:34;;;;;;;19.53;12.90;;;;;;;5.22;100.00;97381.50;4988396;28;20210;-77
2022/03/31 02:06:03;;;;;;;16.67;11.93;;;;;;;5.09;100.00;97382.34;4990458;28;20207;-77
2022/03/31 02:08:31;;;;;;;18.13;12.53;;;;;;;5.02;100.00;97378.50;4992964;28;20207;-77
2022/03/31 02:10:59;;;;;;;18.60;13.00;;;;;;;4.87;100.00;97364.66;4988748;28;20274;-77
2022/03/31 02:13:29;;;;;;;17.50;12.13;;;;;;;5.00;100.00;97364.63;4989874;28;20191;-77
2022/03/31 02:15:58;;;;;;;20.67;11.40;;;;;;;4.97;100.00;97370.09;4992208;28;20198;-80
2022/03/31 02:18:27;;;;;;;18.23;12.20;;;;;;;5.00;100.00;97355.91;4986113;28;20215;-77
2022/03/31 02:20:55;;;;;;;19.80;12.27;;;;;;;5.22;100.00;97350.00;4988822;28;20262;-77
2022/03/31 02:23:24;;;;;;;20.73;11.60;;;;;;;5.11;100.00;97353.38;4988055;28;20671;-77
2022/03/31 02:25:53;;;;;;;19.57;12.93;;;;;;;5.08;100.00;97345.72;4988777;28;20650;-77
2022/03/31 02:28:23;;;;;;;20.37;12.70;;;;;;;5.25;100.00;97336.66;4993060;28;20273;-77
2022/03/31 02:30:52;;;;;;;18.23;12.10;;;;;;;5.02;100.00;97340.91;4992110;28;20270;-77
2022/03/31 02:33:21;;;;;;;20.00;12.50;;;;;;;4.80;100.00;97337.16;4994353;28;20203;-77
2022/03/31 02:35:52;;;;;;;18.13;12.63;;;;;;;4.71;100.00;97339.59;4995600;28;20217;-78
2022/03/31 02:38:21;;;;;;;21.17;12.97;;;;;;;4.68;100.00;97335.41;4996722;28;20670;-77
2022/03/31 02:40:49;;;;;;;20.97;13.50;;;;;;;4.71;100.00;97327.31;4991214;28;20207;-78
2022/03/31 02:43:18;;;;;;;21.93;12.33;;;;;;;4.77;100.00;97331.31;4996038;28;20215;-77
2022/03/31 02:45:46;;;;;;;21.20;12.80;;;;;;;4.65;100.00;97338.25;4991399;28;20210;-78
2022/03/31 02:48:18;;;;;;;20.23;13.67;;;;;;;4.63;100.00;97344.53;4992948;28;20191;-77
2022/03/31 02:50:46;;;;;;;18.93;13.07;;;;;;;4.50;100.00;97344.53;4996069;28;20230;-77
2022/03/31 02:56:02;;;;;;;18.20;13.27;;;;;;;4.67;100.00;97333.75;4996156;28;20246;-77
2022/03/31 02:58:32;;;;;;;21.87;13.07;;;;;;;4.45;100.00;97331.78;4990878;28;20203;-77
2022/03/31 03:01:02;;;;;;;25.00;14.87;;;;;;;4.42;100.00;97329.34;4995977;28;20203;-77
2022/03/31 03:03:32;;;;;;;21.43;14.23;;;;;;;4.59;100.00;97320.31;4991258;28;20199;-77
2022/03/31 03:06:09;;;;;;;24.00;13.70;;;;;;;4.76;100.00;97321.78;4994218;28;20195;-77
2022/03/31 03:08:38;;;;;;;21.97;13.10;;;;;;;4.66;100.00;97318.97;4954802;28;20208;-78
2022/03/31 03:11:07;;;;;;;20.07;13.53;;;;;;;4.61;100.00;97318.44;4947835;28;20228;-77
2022/03/31 03:13:37;;;;;;;19.60;12.87;;;;;;;4.55;100.00;97311.00;4953799;28;20203;-77
2022/03/31 03:16:08;;;;;;;18.80;13.20;;;;;;;4.46;100.00;97311.63;4952957;28;20188;-77
2022/03/31 03:18:38;;;;;;;23.90;13.70;;;;;;;4.50;100.00;97319.16;4952732;28;20283;-77
2022/03/31 03:21:08;;;;;;;23.60;13.43;;;;;;;4.43;100.00;97319.69;4897688;29;20333;-77
2022/03/31 03:23:38;;;;;;;19.23;13.10;;;;;;;4.50;100.00;97313.09;4895126;29;20490;-79
2022/03/31 03:26:08;;;;;;;20.87;13.23;;;;;;;4.57;100.00;97316.97;4907724;28;20228;-77
2022/03/31 03:28:39;;;;;;;20.73;13.37;;;;;;;4.44;100.00;97311.75;4946663;28;20219;-77
2022/03/31 03:31:11;;;;;;;21.20;13.80;;;;;;;4.61;100.00;97321.03;4950148;28;20218;-78
2022/03/31 03:33:42;;;;;;;22.87;12.93;;;;;;;4.69;100.00;97321.34;4952099;28;20200;-78
2022/03/31 03:36:12;;;;;;;23.63;14.07;;;;;;;4.62;100.00;97303.53;4949796;28;20252;-78
2022/03/31 03:38:41;;;;;;;28.27;14.33;;;;;;;4.50;100.00;97305.22;4962844;28;20698;-79
2022/03/31 03:41:12;;;;;;;27.40;14.17;;;;;;;4.58;100.00;97308.16;4996735;28;20237;-79
2022/03/31 03:43:41;;;;;;;20.17;14.23;;;;;;;4.51;100.00;97301.66;4996761;28;20230;-78
2022/03/31 03:46:10;;;;;;;23.20;14.10;;;;;;;4.53;100.00;97308.47;4974827;28;20199;-78
2022/03/31 03:48:40;;;;;;;26.37;14.47;;;;;;;4.45;100.00;97305.56;4994280;28;20191;-78
2022/03/31 03:51:12;;;;;;;26.57;16.30;;;;;;;4.35;100.00;97309.75;4990197;28;20286;-78
2022/03/31 03:53:40;;;;;;;21.13;13.73;;;;;;;4.28;100.00;97309.34;4993828;28;20226;-78
2022/03/31 03:56:08;;;;;;;25.23;14.77;;;;;;;4.25;100.00;97317.41;4991457;28;20214;-78
2022/03/31 03:58:36;;;;;;;26.30;14.37;;;;;;;4.18;100.00;97312.69;4993627;28;20207;-78
2022/03/31 04:01:08;;;;;;;24.60;14.07;;;;;;;4.25;100.00;97306.09;4994372;28;20233;-78
2022/03/31 04:03:38;;;;;;;21.37;14.23;;;;;;;4.21;100.00;97308.06;4995096;28;20495;-78
2022/03/31 04:06:06;;;;;;;23.33;14.23;;;;;;;4.21;100.00;97296.75;4991163;28;20187;-78
2022/03/31 04:08:36;;;;;;;22.03;13.80;;;;;;;4.26;100.00;97289.44;4994759;28;20203;-78
2022/03/31 04:11:07;;;;;;;21.20;14.33;;;;;;;4.30;100.00;97290.88;4973046;28;20278;-78
2022/03/31 04:13:35;;;;;;;20.63;14.33;;;;;;;4.13;100.00;97280.72;4991789;28;20226;-79
2022/03/31 04:16:05;;;;;;;25.33;14.60;;;;;;;4.16;100.00;97281.38;4994509;28;20195;-78
2022/03/31 04:18:34;;;;;;;25.97;14.70;;;;;;;4.08;100.00;97275.81;4997972;28;20206;-78
2022/03/31 04:21:04;;;;;;;28.23;17.07;;;;;;;3.97;100.00;97263.44;4989529;28;20235;-78
2022/03/31 04:23:33;;;;;;;27.43;16.57;;;;;;;3.95;100.00;97267.91;4994445;28;20210;-78
2022/03/31 04:26:03;;;;;;;27.23;16.77;;;;;;;4.03;100.00;97267.41;4985318;28;20230;-78
2022/03/31 04:28:33;;;;;;;28.50;16.97;;;;;;;4.03;100.00;97270.03;4991677;28;20206;-78
2022/03/31 04:31:04;;;;;;;29.10;17.80;;;;;;;3.97;100.00;97265.22;4991720;28;20281;-78
2022/03/31 04:33:33;;;;;;;28.43;17.73;;;;;;;3.79;100.00;97264.69;4989260;28;20209;-78
2022/03/31 04:36:01;;;;;;;27.80;17.50;;;;;;;3.62;100.00;97268.41;4988616;28;20203;-79
2022/03/31 04:38:30;;;;;;;29.70;18.70;;;;;;;3.72;100.00;97269.47;4986045;28;20212;-79
2022/03/31 04:40:59;;;;;;;32.57;19.20;;;;;;;3.65;100.00;97275.22;4989746;28;20219;-78
2022/03/31 04:43:29;;;;;;;31.50;18.97;;;;;;;3.64;100.00;97270.94;4991071;28;20700;-78
2022/03/31 04:45:57;;;;;;;34.97;20.37;;;;;;;3.54;100.00;97273.31;4993999;28;20210;-78
2022/03/31 04:48:25;;;;;;;30.90;20.33;;;;;;;3.43;100.00;97279.25;4989643;28;20254;-78
2022/03/31 04:50:54;;;;;;;33.50;19.83;;;;;;;3.42;100.00;97274.13;4986432;28;20265;-78
2022/03/31 04:53:22;;;;;;;29.80;20.10;;;;;;;3.24;100.00;97270.94;4989781;28;20714;-78
2022/03/31 04:55:51;;;;;;;34.97;21.80;;;;;;;3.29;100.00;97273.25;4991498;28;20278;-78
2022/03/31 04:58:24;;;;;;;33.17;21.00;;;;;;;3.23;100.00;97277.09;4974353;28;20278;-78
2022/03/31 05:00:54;;;;;;;31.83;20.67;;;;;;;3.21;100.00;97270.31;4992684;28;20301;-78
2022/03/31 05:03:23;;;;;;;33.40;21.10;;;;;;;3.04;100.00;97268.75;4993813;28;20191;-78
2022/03/31 05:05:54;;;;;;;35.07;21.03;;;;;;;3.16;100.00;97274.03;4993669;28;20199;-78
2022/03/31 05:08:22;;;;;;;34.03;20.13;;;;;;;3.25;100.00;97277.00;4990088;28;20203;-78
2022/03/31 05:10:51;;;;;;;33.37;20.37;;;;;;;3.22;100.00;97275.44;4984622;28;20226;-78
2022/03/31 05:13:20;;;;;;;33.80;20.90;;;;;;;3.23;100.00;97278.88;4989009;28;20264;-78
2022/03/31 05:15:49;;;;;;;32.87;20.13;;;;;;;3.23;100.00;97282.34;4985432;28;20602;-78
2022/03/31 05:18:20;;;;;;;33.63;21.47;;;;;;;3.30;100.00;97277.56;4993414;28;20235;-78
2022/03/31 05:20:48;;;;;;;34.77;21.43;;;;;;;3.33;100.00;97272.13;4987267;28;20277;-78
2022/03/31 05:23:16;;;;;;;34.17;22.20;;;;;;;3.54;100.00;97270.69;4988291;28;20203;-79
2022/03/31 05:25:45;;;;;;;34.63;21.23;;;;;;;3.57;100.00;97274.88;4987931;28;20218;-78
2022/03/31 05:28:15;;;;;;;33.23;21.80;;;;;;;3.41;100.00;97275.91;4992608;28;20203;-78
2022/03/31 05:30:44;;;;;;;32.40;19.93;;;;;;;3.55;100.00;97285.44;4992260;28;20206;-79
2022/03/31 05:33:13;;;;;;;31.90;20.70;;;;;;;3.68;100.00;97275.88;4992000;28;20229;-78
2022/03/31 05:35:43;;;;;;;32.27;20.90;;;;;;;3.72;100.00;97285.19;4986809;28;20191;-78
2022/03/31 05:38:12;;;;;;;33.40;20.83;;;;;;;3.73;100.00;97273.78;4993306;28;20206;-78
2022/03/31 05:40:41;;;;;;;32.37;21.63;;;;;;;3.88;100.00;97277.16;4987154;28;20222;-79
2022/03/31 05:43:09;;;;;;;32.03;20.80;;;;;;;3.72;100.00;97273.88;4990396;28;20206;-79
2022/03/31 05:45:42;;;;;;;27.30;19.00;;;;;;;4.05;100.00;97275.16;4992598;28;20230;-78
2022/03/31 05:48:10;;;;;;;32.80;19.90;;;;;;;4.02;100.00;97273.59;4990786;28;20322;-78
2022/03/31 05:50:40;;;;;;;33.43;20.47;;;;;;;4.00;100.00;97271.06;4990351;28;20248;-79
2022/03/31 05:53:10;;;;;;;30.33;20.13;;;;;;;4.04;100.00;97271.69;4993152;28;20218;-78
2022/03/31 05:55:40;;;;;;;29.03;20.10;;;;;;;4.20;100.00;97271.50;4990325;28;20207;-78
2022/03/31 05:58:09;;;;;;;30.10;19.90;;;;;;;4.38;100.00;97280.72;4991065;28;20214;-78
2022/03/31 06:00:39;;;;;;;30.97;19.30;;;;;;;4.33;100.00;97272.31;4983136;28;20690;-79
2022/03/31 06:03:08;;;;;;;29.80;19.27;;;;;;;4.43;100.00;97283.84;4991464;28;20274;-80
2022/03/31 06:05:38;;;;;;;31.83;19.33;;;;;;;4.50;100.00;97282.47;4989907;28;20195;-80
2022/03/31 06:08:07;;;;;;;29.93;19.03;;;;;;;4.39;100.00;97278.94;4989589;28;20199;-79
2022/03/31 06:10:42;;;;;;;29.03;18.10;;;;;;;4.38;100.00;97278.09;4953485;28;20192;-79
2022/03/31 06:13:12;;;;;;;34.93;19.67;;;;;;;4.30;100.00;97283.84;4952289;28;20223;-79
2022/03/31 06:15:41;;;;;;;28.03;18.90;;;;;;;4.27;100.00;97280.63;4953964;28;20213;-79
2022/03/31 06:18:10;;;;;;;27.37;18.40;;;;;;;4.32;100.00;97275.88;4956257;28;20208;-79
2022/03/31 06:20:39;;;;;;;26.03;17.90;;;;;;;4.36;100.00;97274.75;4954596;28;20232;-79
2022/03/31 06:23:07;;;;;;;29.27;18.20;;;;;;;4.37;100.00;97275.59;4952653;28;20218;-79
2022/03/31 06:25:35;;;;;;;29.50;19.23;;;;;;;4.46;100.00;97283.66;4956161;28;20648;-79
2022/03/31 06:28:11;;;;;;;28.60;18.97;;;;;;;4.58;100.00;97290.66;4953573;28;20200;-79
2022/03/31 06:30:41;;;;;;;28.70;19.83;;;;;;;4.47;100.00;97287.09;4949289;28;20203;-79
2022/03/31 06:33:10;;;;;;;31.73;19.87;;;;;;;4.70;100.00;97280.25;4949422;28;20211;-79
2022/03/31 06:35:40;;;;;;;31.57;20.57;;;;;;;4.68;100.00;97282.97;4955374;28;20203;-79
2022/03/31 06:38:08;;;;;;;28.67;18.73;;;;;;;4.73;100.00;97283.50;4968180;28;20255;-79
2022/03/31 06:40:37;;;;;;;26.97;18.80;;;;;;;4.55;100.00;97285.63;4968167;28;20203;-79
2022/03/31 06:43:07;;;;;;;31.47;19.80;;;;;;;4.85;100.00;97281.78;4972851;28;20196;-79
2022/03/31 06:45:37;;;;;;;29.17;19.47;;;;;;;4.85;100.00;97279.16;4966437;28;20308;-79
2022/03/31 06:48:06;;;;;;;28.30;19.93;;;;;;;4.64;100.00;97286.78;4970666;28;20231;-79
2022/03/31 06:50:36;;;;;;;31.10;20.33;;;;;;;4.82;100.00;97284.59;4877985;29;20297;-79
2022/03/31 06:53:04;;;;;;;32.30;20.70;;;;;;;5.03;100.00;97275.22;4888887;29;20209;-79
2022/03/31 06:55:35;;;;;;;28.40;20.23;;;;;;;4.97;100.00;97273.03;4877334;29;20235;-79
2022/03/31 06:58:07;;;;;;;30.30;20.43;;;;;;;5.06;100.00;97267.13;4879888;29;20348;-79
2022/03/31 07:00:37;;;;;;;30.93;20.33;;;;;;;5.50;100.00;97264.81;4857880;29;20208;-79
2022/03/31 07:03:06;;;;;;;29.10;19.60;;;;;;;5.67;100.00;97260.00;4856140;29;20246;-79
2022/03/31 07:05:38;;;;;;;27.77;19.50;;;;;;;5.74;100.00;97271.72;4861153;29;20275;-79
2022/03/31 07:08:13;;;;;;;28.43;20.47;;;;;;;5.82;100.00;97275.56;4874268;29;20204;-79
2022/03/31 07:10:43;;;;;;;28.50;19.23;;;;;;;5.86;100.00;97272.59;4915107;29;20281;-79
2022/03/31 07:13:11;;;;;;;26.77;19.00;;;;;;;5.75;100.00;97268.13;4914514;29;20601;-80
2022/03/31 07:15:43;;;;;;;27.37;18.80;;;;;;;5.73;100.00;97270.06;4913689;29;20669;-79
2022/03/31 07:18:17;;;;;;;29.10;19.17;;;;;;;5.67;100.00;97267.03;4925247;28;20223;-79
2022/03/31 07:20:47;;;;;;;26.90;18.67;;;;;;;5.73;100.00;97263.97;4980873;28;20306;-80
2022/03/31 07:23:16;;;;;;;25.27;18.47;;;;;;;5.81;100.00;97268.66;4992537;28;20223;-79
2022/03/31 07:25:47;;;;;;;26.60;18.93;;;;;;;6.07;100.00;97257.00;4992416;28;20191;-79
2022/03/31 07:28:16;;;;;;;27.47;19.50;;;;;;;5.85;100.00;97257.78;4993433;28;20214;-80
2022/03/31 07:30:47;;;;;;;25.67;18.50;;;;;;;6.09;100.00;97249.03;4994645;28;20195;-79
2022/03/31 07:33:15;;;;;;;25.87;18.57;;;;;;;6.10;100.00;97242.81;4994381;28;20203;-79
2022/03/31 07:35:47;;;;;;;24.37;17.63;;;;;;;6.15;100.00;97246.75;4995276;28;20229;-80
2022/03/31 07:38:16;;;;;;;27.87;19.07;;;;;;;6.38;100.00;97233.63;4994307;28;20207;-80
2022/03/31 07:40:45;;;;;;;28.07;19.13;;;;;;;6.46;100.00;97239.94;4993741;28;20195;-80
2022/03/31 07:43:13;;;;;;;27.40;18.57;;;;;;;6.35;100.00;97247.00;4989588;28;20681;-80
2022/03/31 07:45:43;;;;;;;25.10;18.50;;;;;;;6.50;100.00;97240.56;4989681;28;20199;-80
2022/03/31 07:48:17;;;;;;;24.40;17.37;;;;;;;6.42;100.00;97242.94;4970802;28;20227;-79
2022/03/31 07:50:46;;;;;;;27.97;19.37;;;;;;;6.74;100.00;97235.16;4969528;28;20235;-79
2022/03/31 07:53:17;;;;;;;25.83;17.73;;;;;;;6.74;100.00;97235.16;4969697;28;20200;-80
2022/03/31 07:55:47;;;;;;;27.90;18.03;;;;;;;6.88;100.00;97237.53;4971221;28;20200;-80
2022/03/31 07:58:16;;;;;;;26.53;18.53;;;;;;;6.45;100.00;97230.38;4972774;28;20196;-78
2022/03/31 08:00:50;;;;;;;24.20;17.63;;;;;;;6.50;100.00;97230.88;4970811;28;20228;-80
2022/03/31 08:03:22;;;;;;;29.47;19.43;;;;;;;6.55;100.00;97231.34;4972214;28;20222;-81
2022/03/31 08:05:51;;;;;;;28.97;20.07;;;;;;;6.68;100.00;97231.22;4926534;28;20209;-79
2022/03/31 08:08:20;;;;;;;25.97;18.70;;;;;;;6.78;100.00;97234.78;4951155;28;20200;-79
2022/03/31 08:10:52;;;;;;;26.87;19.27;;;;;;;6.82;100.00;97235.38;4950900;28;20211;-79
2022/03/31 08:13:25;;;;;;;27.87;19.83;;;;;;;6.63;100.00;97228.09;4915408;29;20212;-79
2022/03/31 08:15:55;;;;;;;26.47;19.00;;;;;;;7.02;100.00;97231.97;4911548;29;20225;-80
2022/03/31 08:18:28;;;;;;;25.73;18.23;;;;;;;7.00;100.00;97231.28;4911330;29;20210;-80
2022/03/31 08:21:00;;;;;;;27.63;18.43;;;;;;;7.07;100.00;97235.09;4911459;29;20316;-79
2022/03/31 08:23:30;;;;;;;24.53;17.73;;;;;;;7.09;100.00;97232.34;4861950;29;20223;-80
2022/03/31 08:26:01;;;;;;;25.17;17.33;;;;;;;7.12;100.00;97230.28;4854941;29;20262;-79
2022/03/31 08:28:31;;;;;;;25.53;18.30;;;;;;;7.11;100.00;97233.88;4877016;29;20203;-80
2022/03/31 08:31:00;;;;;;;32.63;23.30;;;;;;;7.23;100.00;97232.03;4885356;29;20205;-79
2022/03/31 08:33:30;;;;;;;31.27;23.03;;;;;;;7.14;100.00;97225.75;4915356;29;20208;-80
2022/03/31 08:35:59;;;;;;;26.40;19.20;;;;;;;7.28;100.00;97227.25;4916984;29;20209;-79
2022/03/31 08:38:27;;;;;;;23.30;17.23;;;;;;;7.11;100.00;97222.50;4909469;29;20344;-79
2022/03/31 08:40:57;;;;;;;27.33;19.53;;;;;;;7.22;100.00;97230.38;4923391;28;20210;-80
2022/03/31 08:43:27;;;;;;;25.17;17.80;;;;;;;7.31;100.00;97220.88;4986109;28;20218;-80
2022/03/31 08:45:57;;;;;;;22.57;17.83;;;;;;;7.45;100.00;97221.44;4992712;28;20201;-79
2022/03/31 08:48:27;;;;;;;26.77;18.43;;;;;;;7.54;100.00;97226.91;4994081;28;20195;-80
2022/03/31 08:50:57;;;;;;;23.30;17.43;;;;;;;7.54;100.00;97227.75;4994034;28;20205;-80
2022/03/31 08:53:25;;;;;;;24.40;17.70;;;;;;;7.51;100.00;97224.50;4989528;28;20205;-80
2022/03/31 08:55:54;;;;;;;23.40;16.80;;;;;;;7.47;100.00;97219.50;4990082;28;20274;-79
2022/03/31 08:58:23;;;;;;;21.97;16.23;;;;;;;7.52;100.00;97219.09;4993716;28;20210;-80
2022/03/31 09:00:52;;;;;;;25.80;18.53;;;;;;;7.56;100.00;97219.72;4992244;28;20195;-80
2022/03/31 09:03:21;;;;;;;25.67;18.30;;;;;;;7.57;100.00;97221.38;4996110;28;20222;-80
2022/03/31 09:05:52;;;;;;;22.80;17.23;;;;;;;7.52;100.00;97215.63;4996358;28;20203;-80
2022/03/31 09:08:23;;;;;;;24.30;17.77;;;;;;;7.59;100.00;97216.81;4988999;28;20654;-79
2022/03/31 09:10:54;;;;;;;22.07;16.63;;;;;;;7.90;100.00;97209.81;4993560;28;20198;-79
2022/03/31 09:13:24;;;;;;;23.80;18.37;;;;;;;7.98;100.00;97213.47;4991919;28;20202;-80
2022/03/31 09:15:53;;;;;;;23.60;17.03;;;;;;;8.01;100.00;97212.38;4993984;28;20206;-80
2022/03/31 09:18:23;;;;;;;20.77;15.97;;;;;;;8.08;100.00;97210.88;4970704;28;20231;-80
2022/03/31 09:20:56;;;;;;;22.33;16.83;;;;;;;7.73;100.00;97216.50;4992031;28;20238;-79
2022/03/31 09:23:28;;;;;;;21.20;16.40;;;;;;;7.70;100.00;97207.03;4993616;28;20215;-79
2022/03/31 09:26:07;;;;;;;22.07;16.67;;;;;;;7.89;100.00;97203.69;4977679;28;20281;-80
2022/03/31 09:28:38;;;;;;;21.33;15.37;;;;;;;8.13;100.00;97200.78;4992685;28;20242;-80
2022/03/31 09:31:10;;;;;;;21.80;15.87;;;;;;;8.14;100.00;97204.25;4993564;28;20197;-79
2022/03/31 09:33:41;;;;;;;21.33;15.83;;;;;;;8.17;100.00;97201.34;4991705;28;20250;-80
2022/03/31 09:36:13;;;;;;;19.00;14.67;;;;;;;8.26;100.00;97208.47;4993805;28;20202;-79
2022/03/31 09:38:51;;;;;;;20.77;15.23;;;;;;;8.24;100.00;97205.97;4996115;28;20202;-78
2022/03/31 09:41:21;;;;;;;21.63;15.47;;;;;;;8.18;100.00;97210.94;4996201;28;20210;-80
2022/03/31 09:43:52;;;;;;;18.63;14.50;;;;;;;8.26;100.00;97206.66;4992622;28;20215;-80
2022/03/31 09:46:21;;;;;;;19.03;14.10;;;;;;;8.19;100.00;97207.31;4991149;28;20222;-80
2022/03/31 09:48:51;;;;;;;18.93;14.30;;;;;;;8.16;100.00;97212.88;4995071;28;20234;-79
2022/03/31 09:51:23;;;;;;;20.17;15.00;;;;;;;8.20;100.00;97207.22;4995305;28;20206;-79
2022/03/31 09:53:55;;;;;;;17.57;13.63;;;;;;;8.16;100.00;97212.88;4997317;28;20289;-79
2022/03/31 09:56:25;;;;;;;21.17;15.50;;;;;;;7.84;100.00;97216.44;4995103;28;20206;-79
2022/03/31 09:58:55;;;;;;;21.17;15.23;;;;;;;8.24;100.00;97220.97;4992226;28;20203;-79
2022/03/31 10:01:24;;;;;;;20.83;15.10;;;;;;;8.33;100.00;97213.09;4992426;28;20191;-79
2022/03/31 10:03:56;;;;;;;19.37;14.93;;;;;;;8.06;100.00;97212.81;4934496;29;20684;-80
2022/03/31 10:06:25;;;;;;;19.83;15.13;;;;;;;8.31;100.00;97214.19;4937499;29;20200;-80
2022/03/31 10:09:00;;;;;;;18.63;13.80;;;;;;;8.40;100.00;97204.69;4937466;29;20209;-80
2022/03/31 10:11:30;;;;;;;18.63;13.23;;;;;;;8.50;100.00;97202.94;4928874;29;20209;-80
2022/03/31 10:14:09;;;;;;;17.27;13.03;;;;;;;8.50;100.00;97197.66;4932388;29;20284;-80
2022/03/31 10:16:47;;;;;;;17.53;13.37;;;;;;;8.28;100.00;97206.53;4937174;29;20207;-80
2022/03/31 10:19:27;;;;;;;22.40;12.77;;;;;;;8.39;100.00;97195.09;4937185;29;20247;-80
2022/03/31 10:21:59;;;;;;;21.33;14.30;;;;;;;8.30;100.00;97202.00;4936872;28;20225;-80
2022/03/31 10:24:47;;;;;;;21.77;14.63;;;;;;;8.41;100.00;97191.38;4936202;29;20228;-80
2022/03/31 10:27:29;;;;;;;18.53;13.47;;;;;;;8.22;100.00;97194.72;4937191;29;20193;-80
2022/03/31 10:30:10;;;;;;;17.33;13.00;;;;;;;8.29;100.00;97192.38;4970547;28;20219;-80
2022/03/31 10:32:50;;;;;;;18.73;13.67;;;;;;;8.38;100.00;97196.06;4972776;28;20230;-80
2022/03/31 10:35:23;;;;;;;18.70;14.50;;;;;;;8.24;100.00;97191.97;4975405;28;20299;-79
2022/03/31 10:37:52;;;;;;;21.67;14.93;;;;;;;8.34;100.00;97187.56;4989225;28;20254;-80
2022/03/31 10:40:34;;;;;;;21.40;17.20;;;;;;;8.24;100.00;97187.50;4956004;28;20188;-80
2022/03/31 10:43:03;;;;;;;20.90;17.87;;;;;;;8.32;100.00;97190.31;4955904;28;20207;-80
2022/03/31 10:45:37;;;;;;;19.63;16.97;;;;;;;8.41;100.00;97182.63;4954512;28;20200;-80
2022/03/31 10:48:15;;;;;;;20.33;18.13;;;;;;;8.52;100.00;97185.16;4951166;28;20192;-80
2022/03/31 10:50:44;;;;;;;17.00;14.00;;;;;;;8.66;100.00;97178.66;4952213;28;20287;-80
2022/03/31 10:53:13;;;;;;;18.80;13.63;;;;;;;8.75;100.00;97172.56;4898178;29;20203;-79
2022/03/31 10:55:50;;;;;;;16.67;13.10;;;;;;;8.66;100.00;97168.09;4895715;29;20691;-80
2022/03/31 10:58:30;;;;;;;18.17;13.60;;;;;;;8.53;100.00;97157.81;4897487;29;20230;-80
2022/03/31 11:01:03;;;;;;;18.93;13.73;;;;;;;8.47;100.00;97161.81;4898754;29;20198;-80
2022/03/31 11:03:32;;;;;;;16.13;13.17;;;;;;;8.60;100.00;97158.94;4895677;29;20228;-80
2022/03/31 11:06:07;;;;;;;18.47;14.33;;;;;;;8.68;100.00;97159.06;4897023;29;20202;-80
2022/03/31 11:08:46;;;;;;;17.57;12.37;;;;;;;8.68;100.00;97152.97;4863284;29;20214;-80
2022/03/31 11:11:27;;;;;;;18.80;14.57;;;;;;;8.77;100.00;97152.97;4900078;28;20208;-80
2022/03/31 11:13:57;;;;;;;18.47;14.73;;;;;;;8.83;100.00;97155.09;4950128;28;20196;-80
2022/03/31 11:16:37;;;;;;;17.03;13.07;;;;;;;8.91;100.00;97143.00;4958551;28;20628;-80
2022/03/31 11:19:07;;;;;;;16.10;12.73;;;;;;;8.86;100.00;97152.16;4975854;28;20255;-80
2022/03/31 11:21:39;;;;;;;17.23;13.10;;;;;;;9.08;100.00;97145.81;4935866;29;20280;-80
2022/03/31 11:24:09;;;;;;;16.47;12.60;;;;;;;9.00;100.00;97150.09;4936884;29;20301;-80
2022/03/31 11:26:44;;;;;;;16.10;12.60;;;;;;;8.71;100.00;97144.78;4941043;28;20200;-80
2022/03/31 11:29:13;;;;;;;16.73;13.00;;;;;;;8.84;100.00;97146.19;4953994;28;20290;-80
2022/03/31 11:31:44;;;;;;;17.93;13.57;;;;;;;8.67;100.00;97148.66;4952462;28;20339;-79
2022/03/31 11:34:18;;;;;;;19.53;14.63;;;;;;;8.95;100.00;97133.84;4951514;28;20727;-80